Elizabeth City, NC (27906)

4:06 PM EDT on September 03, 2015 (GMT -0400)
Forest Park | | Change Station
CLOSE
Current Station
Personal Weather Station
Location: Elizabeth City, NC
Elevation: 46 ft
Nearby Weather Stations

Elev 46 ft 36.30 °N, 76.27 °W | Updated 4 seconds ago

Partly Cloudy
Partly Cloudy
89.7 °F
Feels Like 100 °F
N
0.0
Wind Variable Wind from WSW
Gusts 2.0 mph

Today
High -- | Low -- °F
--% Chance of Precip.
Yesterday
High -- | Low -- °F
Precip. -- in
6:37 AM 7:30 PM
Waning Gibbous, 67% visible
Pressure 29.86 in
Visibility 10.0 miles
Clouds Few 4500 ft
Heat Index 100 °F
Dew Point 74 °F
Humidity 62%
Rainfall 0.02 in
Snow Depth Not available.
UV 5 out of 12
Pollen 9.50 out of 12
Air Quality Not available.
Flu Activity Not available.
METAR KECG 031954Z 18007KT 10SM FEW045 30/23 A2986 RMK AO2 SLP112 T03000228
Pressure 29.86 in
Visibility 10.0 miles
Clouds Few 4500 ft
Heat Index 100 °F
Dew Point 74 °F
Humidity 62%
Rainfall 0.02 in
Snow Depth Not available.
UV 5 out of 12
Pollen 9.50 out of 12
Air Quality Not available.
Flu Activity Not available.
METAR KECG 031954Z 18007KT 10SM FEW045 30/23 A2986 RMK AO2 SLP112 T03000228

10-Day Weather Forecast

×

Almanac

Astronomy

Sep. 03, 2015 Rise Set
Actual Time
Civil Twilight
Nautical Twilight
Astronomical Twilight
Moon
Length of Visible Light
Length of Day
Tomorrow will be .
, % of the Moon is Illuminated

Today's Extremes

State Highs State Lows

Community

WunderPhotos

Upload Photos

1,852,019 photos uploaded!

WunderBlogs® & News

Nearby

Air Quality

  Air Quality AQ Index Pollutant
Not available.

Snow Depth

Station Depth Elevation

Earthquake Activity

City Distance Mag. Time & Date
Minimum magnitude displayed is 2.5.

Coastal Water Temperatures

Place Temperature

Stations

Nearby Weather Stations

Station Location Temp. Windchill Dew Point Humidity Wind Precip. Elev Updated Type